createdAt,value
2022-08-20T00:01:17.478Z,100715.94
2022-08-20T00:04:04.248Z,100716.59
2022-08-20T00:06:53.592Z,100717.06
2022-08-20T00:09:41.707Z,100726.84
2022-08-20T00:12:28.326Z,100726.00
2022-08-20T00:15:16.398Z,100719.75
2022-08-20T00:18:03.652Z,100723.06
2022-08-20T00:20:52.940Z,100713.75
2022-08-20T00:23:39.906Z,100720.00
2022-08-20T00:26:26.602Z,100720.41
2022-08-20T00:29:13.259Z,100723.84
2022-08-20T00:32:04.972Z,100730.00
2022-08-20T00:34:51.930Z,100718.22
2022-08-20T00:37:38.996Z,100726.94
2022-08-20T00:40:29.848Z,100724.34
2022-08-20T00:43:30.186Z,100728.53
2022-08-20T00:46:21.519Z,100720.41
2022-08-20T00:49:13.123Z,100721.84
2022-08-20T00:52:03.337Z,100719.44
2022-08-20T00:54:53.096Z,100718.47
2022-08-20T00:57:59.883Z,100725.59
2022-08-20T01:00:49.963Z,100727.00
2022-08-20T01:03:37.114Z,100727.97
2022-08-20T01:06:26.378Z,100728.06
2022-08-20T01:09:13.390Z,100743.59
2022-08-20T01:12:02.986Z,100729.94
2022-08-20T01:14:49.752Z,100731.97
2022-08-20T01:17:41.838Z,100722.22
2022-08-20T01:20:32.520Z,100721.56
2022-08-20T01:23:28.180Z,100728.34
2022-08-20T01:26:18.961Z,100737.38
2022-08-20T01:29:08.741Z,100726.72
2022-08-20T01:32:01.261Z,100723.81
2022-08-20T01:34:48.086Z,100730.63
2022-08-20T01:37:34.944Z,100734.69
2022-08-20T01:40:30.611Z,100725.47
2022-08-20T01:43:19.030Z,100729.22
2022-08-20T01:46:08.302Z,100727.38
2022-08-20T01:48:58.421Z,100735.25
2022-08-20T01:51:45.349Z,100739.13
2022-08-20T01:54:36.440Z,100736.75
2022-08-20T01:57:26.888Z,100743.97
2022-08-20T02:00:20.283Z,100741.28
2022-08-20T02:03:08.872Z,100740.97
2022-08-20T02:05:55.466Z,100738.81
2022-08-20T02:08:42.116Z,100734.09
2022-08-20T02:11:30.687Z,100738.84
2022-08-20T02:14:17.939Z,100743.56
2022-08-20T02:17:07.293Z,100746.03
2022-08-20T02:19:58.834Z,100746.16
2022-08-20T02:22:49.956Z,100745.28
2022-08-20T02:25:40.282Z,100734.25
2022-08-20T02:28:28.029Z,100755.06
2022-08-20T02:31:14.760Z,100760.44
2022-08-20T02:34:22.030Z,100759.47
2022-08-20T02:37:09.894Z,100757.66
2022-08-20T02:39:56.614Z,100754.31
2022-08-20T02:42:43.871Z,100761.94
2022-08-20T02:45:37.503Z,100766.66
2022-08-20T02:48:24.084Z,100763.97
2022-08-20T02:51:12.527Z,100774.84
2022-08-20T02:53:59.592Z,100761.50
2022-08-20T02:56:46.262Z,100768.06
2022-08-20T02:59:33.677Z,100760.97
2022-08-20T03:02:20.084Z,100757.97
2022-08-20T03:05:07.931Z,100751.28
2022-08-20T03:07:56.975Z,100754.94
2022-08-20T03:10:46.172Z,100757.75
2022-08-20T03:13:33.153Z,100763.13
2022-08-20T03:16:19.763Z,100746.88
2022-08-20T03:19:06.646Z,100745.69
2022-08-20T03:21:53.917Z,100746.56
2022-08-20T03:24:42.048Z,100749.66
2022-08-20T03:27:29.976Z,100751.81
2022-08-20T03:30:24.446Z,100739.91
2022-08-20T03:33:11.000Z,100750.22
2022-08-20T03:35:57.695Z,100715.38
2022-08-20T03:38:44.719Z,100748.34
2022-08-20T03:41:33.350Z,100748.28
2022-08-20T03:44:20.081Z,100739.47
2022-08-20T03:47:09.466Z,100747.94
2022-08-20T03:49:59.364Z,100732.66
2022-08-20T03:52:46.196Z,100737.94
2022-08-20T03:55:33.301Z,100755.47
2022-08-20T03:58:34.584Z,100750.09
2022-08-20T04:01:44.355Z,100750.09
2022-08-20T04:04:29.727Z,100740.88
2022-08-20T04:07:21.233Z,100754.63
2022-08-20T04:10:12.277Z,100757.31
2022-08-20T04:12:58.629Z,100762.59
2022-08-20T04:15:47.607Z,100748.72
2022-08-20T04:18:37.514Z,100744.41
2022-08-20T04:21:24.265Z,100749.03
2022-08-20T04:24:24.506Z,100748.81
2022-08-20T04:27:21.328Z,100749.28
2022-08-20T04:30:12.073Z,100747.75
2022-08-20T04:33:00.788Z,100747.44
2022-08-20T04:35:47.658Z,100747.75
2022-08-20T04:38:50.509Z,100759.69
2022-08-20T04:41:37.520Z,100767.25
2022-08-20T04:44:24.303Z,100773.47
2022-08-20T04:47:11.193Z,100768.22
2022-08-20T04:50:00.534Z,100761.84
2022-08-20T04:52:48.825Z,100757.00
2022-08-20T04:55:39.302Z,100754.75
2022-08-20T04:58:30.445Z,100748.81
2022-08-20T05:01:17.313Z,100748.06
2022-08-20T05:04:04.527Z,100753.22
2022-08-20T05:06:52.722Z,100726.06
2022-08-20T05:09:43.698Z,100767.09
2022-08-20T05:12:31.016Z,100761.41
2022-08-20T05:15:19.364Z,100762.25
2022-08-20T05:18:08.692Z,100769.56
2022-08-20T05:21:04.603Z,100787.44
2022-08-20T05:23:52.532Z,100788.41
2022-08-20T05:26:39.463Z,100789.16
2022-08-20T05:29:25.976Z,100796.97
2022-08-20T05:32:12.945Z,100793.34
2022-08-20T05:35:00.650Z,100801.06
2022-08-20T05:37:47.382Z,100803.31
2022-08-20T05:40:36.195Z,100804.41
2022-08-20T05:43:23.108Z,100789.25
2022-08-20T05:46:09.632Z,100805.91
2022-08-20T05:48:59.936Z,100804.19
2022-08-20T05:51:47.416Z,100806.25
2022-08-20T05:54:34.378Z,100812.81
2022-08-20T05:57:23.305Z,100820.13
2022-08-20T06:00:13.951Z,100817.63
2022-08-20T06:03:18.722Z,100804.72
2022-08-20T06:06:18.202Z,100790.63
2022-08-20T06:09:13.258Z,100799.47
2022-08-20T06:12:00.492Z,100795.47
2022-08-20T06:14:48.464Z,100803.34
2022-08-20T06:17:39.484Z,100803.13
2022-08-20T06:20:28.994Z,100812.91
2022-08-20T06:23:17.104Z,100807.75
2022-08-20T06:26:03.965Z,100813.13
2022-08-20T06:28:50.816Z,100816.66
2022-08-20T06:31:42.495Z,100818.91
2022-08-20T06:34:30.923Z,100821.38
2022-08-20T06:37:28.174Z,100819.91
2022-08-20T06:40:23.286Z,100811.28
2022-08-20T06:43:10.266Z,100819.25
2022-08-20T06:45:57.853Z,100819.91
2022-08-20T06:48:45.678Z,100823.78
2022-08-20T06:51:32.325Z,100825.81
2022-08-20T06:54:19.104Z,100825.28
2022-08-20T06:57:07.767Z,100830.97
2022-08-20T06:59:56.918Z,100834.75
2022-08-20T07:02:45.140Z,100834.75
2022-08-20T07:05:37.130Z,100833.88
2022-08-20T07:08:23.705Z,100832.47
2022-08-20T07:11:11.385Z,100843.13
2022-08-20T07:13:59.439Z,100841.41
2022-08-20T07:16:47.248Z,100853.22
2022-08-20T07:19:34.097Z,100850.75
2022-08-20T07:22:21.907Z,100855.94
2022-08-20T07:25:11.329Z,100859.69
2022-08-20T07:28:02.574Z,100864.09
2022-08-20T07:31:13.651Z,100855.06
2022-08-20T07:34:05.306Z,100856.91
2022-08-20T07:36:53.777Z,100864.88
2022-08-20T07:39:42.834Z,100869.16
2022-08-20T07:42:29.627Z,100876.16
2022-08-20T07:45:18.811Z,100860.03
2022-08-20T07:48:10.472Z,100868.06
2022-08-20T07:50:57.790Z,100873.78
2022-08-20T07:53:46.388Z,100876.38
2022-08-20T07:56:34.757Z,100872.72
2022-08-20T07:59:24.079Z,100872.38
2022-08-20T08:02:10.857Z,100874.53
2022-08-20T08:04:57.961Z,100879.75
2022-08-20T08:07:44.693Z,100875.16
2022-08-20T08:10:32.111Z,100878.50
2022-08-20T08:13:20.699Z,100874.38
2022-08-20T08:16:10.084Z,100886.50
2022-08-20T08:18:58.545Z,100893.59
2022-08-20T08:21:45.606Z,100896.09
2022-08-20T08:24:32.002Z,100894.22
2022-08-20T08:27:19.045Z,100898.53
2022-08-20T08:30:10.183Z,100895.19
2022-08-20T08:33:16.345Z,100898.75
2022-08-20T08:36:06.524Z,100897.44
2022-08-20T08:38:54.670Z,100895.94
2022-08-20T08:41:49.523Z,100899.38
2022-08-20T08:44:41.311Z,100901.00
2022-08-20T08:47:32.162Z,100893.66
2022-08-20T08:50:43.804Z,100890.72
2022-08-20T08:53:37.641Z,100894.16
2022-08-20T08:56:26.674Z,100896.53
2022-08-20T08:59:13.650Z,100891.00
2022-08-20T09:02:02.018Z,100890.16
2022-08-20T09:04:51.738Z,100897.13
2022-08-20T09:07:39.595Z,100904.50
2022-08-20T09:10:26.563Z,100905.97
2022-08-20T09:13:13.724Z,100913.09
2022-08-20T09:16:00.815Z,100920.84
2022-08-20T09:18:47.386Z,100905.53
2022-08-20T09:21:35.542Z,100920.09
2022-08-20T09:24:22.959Z,100915.84
2022-08-20T09:27:10.850Z,100910.72
2022-08-20T09:29:57.829Z,100915.81
2022-08-20T09:32:45.328Z,100917.44
2022-08-20T09:35:31.879Z,100916.69
2022-08-20T09:38:20.144Z,100920.16
2022-08-20T09:41:07.166Z,100918.94
2022-08-20T09:43:53.568Z,100923.34
2022-08-20T09:46:40.379Z,100921.41
2022-08-20T09:49:27.358Z,100922.25
2022-08-20T09:52:22.683Z,100918.34
2022-08-20T09:55:21.424Z,100917.59
2022-08-20T09:58:14.225Z,100918.19
2022-08-20T10:01:16.309Z,100914.75
2022-08-20T10:04:09.640Z,100916.59
2022-08-20T10:06:59.995Z,100916.59
2022-08-20T10:09:47.971Z,100915.75
2022-08-20T10:12:36.205Z,100914.88
2022-08-20T10:15:22.940Z,100918.47
2022-08-20T10:18:09.753Z,100924.06
2022-08-20T10:20:58.989Z,100916.38
2022-08-20T10:23:45.622Z,100921.16
2022-08-20T10:26:32.624Z,100925.06
2022-08-20T10:29:20.556Z,100922.97
2022-08-20T10:32:14.506Z,100913.69
2022-08-20T10:35:05.505Z,100923.09
2022-08-20T10:37:56.572Z,100920.53
2022-08-20T10:40:53.711Z,100926.44
2022-08-20T10:43:41.130Z,100929.88
2022-08-20T10:46:29.229Z,100925.56
2022-08-20T10:49:15.874Z,100923.34
2022-08-20T10:52:03.333Z,100926.78
2022-08-20T10:54:53.314Z,100928.25
2022-08-20T10:57:43.337Z,100922.13
2022-08-20T11:00:30.159Z,100927.72
2022-08-20T11:03:18.286Z,100929.34
2022-08-20T11:06:05.991Z,100929.94
2022-08-20T11:08:52.474Z,100928.22
2022-08-20T11:11:39.850Z,100935.22
2022-08-20T11:14:26.811Z,100934.50
2022-08-20T11:17:13.687Z,100929.59
2022-08-20T11:20:03.156Z,100935.47
2022-08-20T11:22:49.731Z,100937.94
2022-08-20T11:25:36.543Z,100949.19
2022-08-20T11:28:31.066Z,100949.31
2022-08-20T11:31:18.101Z,100940.69
2022-08-20T11:34:07.338Z,100941.91
2022-08-20T11:36:59.199Z,100935.56
2022-08-20T11:39:45.853Z,100944.19
2022-08-20T11:42:32.706Z,100941.03
2022-08-20T11:45:19.665Z,100936.84
2022-08-20T11:48:06.595Z,100940.19
2022-08-20T11:50:53.129Z,100943.50
2022-08-20T11:53:41.190Z,100941.03
2022-08-20T11:56:28.042Z,100953.06
2022-08-20T11:59:15.178Z,100956.13
2022-08-20T12:02:02.215Z,100957.72
2022-08-20T12:04:50.230Z,100966.81
2022-08-20T12:07:36.931Z,100957.50
2022-08-20T12:10:26.891Z,100957.47
2022-08-20T12:13:13.540Z,100954.03
2022-08-20T12:16:00.647Z,100955.91
2022-08-20T12:18:48.804Z,100951.59
2022-08-20T12:21:35.823Z,100944.22
2022-08-20T12:24:22.569Z,100947.19
2022-08-20T12:27:12.323Z,100943.25
2022-08-20T12:30:01.063Z,100942.63
2022-08-20T12:32:47.572Z,100946.81
2022-08-20T12:35:34.217Z,100948.91
2022-08-20T12:38:22.534Z,100951.84
2022-08-20T12:41:09.321Z,100950.34
2022-08-20T12:43:57.544Z,100957.31
2022-08-20T12:46:44.271Z,100958.91
2022-08-20T12:49:31.023Z,100961.31
2022-08-20T12:52:19.381Z,100964.84
2022-08-20T12:55:07.719Z,100966.66
2022-08-20T12:57:59.373Z,100971.75
2022-08-20T13:00:50.737Z,100948.72
2022-08-20T13:03:40.826Z,100971.03
2022-08-20T13:06:31.970Z,100959.91
2022-08-20T13:09:19.339Z,100959.25
2022-08-20T13:12:06.771Z,100958.91
2022-08-20T13:14:53.334Z,100957.72
2022-08-20T13:17:42.009Z,100956.28
2022-08-20T13:20:33.927Z,100961.44
2022-08-20T13:23:21.634Z,100961.44
2022-08-20T13:26:08.949Z,100952.47
2022-08-20T13:28:56.329Z,100963.03
2022-08-20T13:31:43.109Z,100957.09
2022-08-20T13:34:31.339Z,100965.28
2022-08-20T13:37:24.911Z,100964.81
2022-08-20T13:40:13.697Z,100957.78
2022-08-20T13:43:06.016Z,100971.38
2022-08-20T13:45:54.037Z,100964.63
2022-08-20T13:48:40.746Z,100962.31
2022-08-20T13:51:30.491Z,100968.72
2022-08-20T13:54:17.390Z,100974.00
2022-08-20T13:57:09.657Z,100964.44
2022-08-20T13:59:58.899Z,100972.81
2022-08-20T14:02:45.878Z,100964.53
2022-08-20T14:05:33.611Z,100975.03
2022-08-20T14:08:24.916Z,100977.03
2022-08-20T14:11:12.791Z,100979.75
2022-08-20T14:14:04.430Z,100972.66
2022-08-20T14:16:51.102Z,100968.25
2022-08-20T14:19:38.865Z,100970.06
2022-08-20T14:22:26.854Z,100963.81
2022-08-20T14:25:17.064Z,100965.66
2022-08-20T14:28:11.674Z,100964.44
2022-08-20T14:30:58.528Z,100961.19
2022-08-20T14:33:45.241Z,100964.13
2022-08-20T14:36:32.249Z,100970.38
2022-08-20T14:39:20.508Z,100967.16
2022-08-20T14:42:09.045Z,100972.69
2022-08-20T14:44:56.184Z,100967.75
2022-08-20T14:47:44.349Z,100966.03
2022-08-20T14:50:33.446Z,100966.66
2022-08-20T14:53:23.071Z,100963.94
2022-08-20T14:56:11.234Z,100966.44
2022-08-20T14:58:59.118Z,100973.44
2022-08-20T15:01:45.858Z,100972.47
2022-08-20T15:04:33.018Z,100969.56
2022-08-20T15:07:25.224Z,100968.34
2022-08-20T15:10:15.656Z,100965.78
2022-08-20T15:13:03.132Z,100962.56
2022-08-20T15:15:51.117Z,100961.31
2022-08-20T15:18:37.841Z,100962.06
2022-08-20T15:21:25.682Z,100970.91
2022-08-20T15:24:18.978Z,100964.25
2022-08-20T15:27:12.731Z,100973.81
2022-08-20T15:29:59.179Z,100975.53
2022-08-20T15:32:51.396Z,100976.97
2022-08-20T15:35:41.247Z,100975.22
2022-08-20T15:38:28.083Z,100976.88
2022-08-20T15:41:14.490Z,100986.38
2022-08-20T15:44:01.357Z,100984.69
2022-08-20T15:46:49.915Z,100981.78
2022-08-20T15:49:39.447Z,100994.72
2022-08-20T15:52:28.339Z,100991.72
2022-08-20T15:55:17.453Z,100994.84
2022-08-20T15:58:14.831Z,100986.00
2022-08-20T16:01:25.403Z,100990.00
2022-08-20T16:04:38.166Z,101005.00
2022-08-20T16:07:33.961Z,101005.00
2022-08-20T16:10:28.283Z,101004.66
2022-08-20T16:13:27.485Z,101000.16
2022-08-20T16:16:19.371Z,101007.56
2022-08-20T16:19:06.667Z,100995.41
2022-08-20T16:21:55.494Z,100999.19
2022-08-20T16:24:43.499Z,100998.31
2022-08-20T16:27:37.076Z,101003.25
2022-08-20T16:30:33.808Z,101009.06
2022-08-20T16:33:26.806Z,101003.25
2022-08-20T16:36:20.607Z,101006.47
2022-08-20T16:39:09.506Z,101014.88
2022-08-20T16:41:58.439Z,101016.75
2022-08-20T16:44:55.517Z,101018.03
2022-08-20T16:47:42.522Z,101019.13
2022-08-20T16:50:34.820Z,101013.19
2022-08-20T16:53:25.575Z,101019.41
2022-08-20T16:56:13.166Z,101025.13
2022-08-20T16:59:05.686Z,101023.59
2022-08-20T17:02:06.956Z,101029.28
2022-08-20T17:04:59.145Z,101027.31
2022-08-20T17:07:52.066Z,101027.88
2022-08-20T17:10:57.087Z,101028.06
2022-08-20T17:13:47.950Z,101033.44
2022-08-20T17:17:01.593Z,101034.50
2022-08-20T17:19:54.617Z,101032.69
2022-08-20T17:22:46.669Z,101042.47
2022-08-20T17:25:37.622Z,101035.47
2022-08-20T17:28:24.515Z,101040.75
2022-08-20T17:31:11.691Z,101036.34
2022-08-20T17:33:59.771Z,101039.03
2022-08-20T17:36:53.593Z,101033.75
2022-08-20T17:39:48.012Z,101034.72
2022-08-20T17:42:45.695Z,101031.41
2022-08-20T17:45:37.485Z,101030.41
2022-08-20T17:48:26.410Z,101026.75
2022-08-20T17:51:18.322Z,101039.22
2022-08-20T17:54:15.113Z,101039.47
2022-08-20T17:57:06.646Z,101037.94
2022-08-20T18:00:02.407Z,101043.31
2022-08-20T18:02:54.003Z,101043.41
2022-08-20T18:05:41.229Z,101044.59
2022-08-20T18:08:38.232Z,101042.75
2022-08-20T18:11:31.895Z,100981.25
2022-08-20T18:14:35.143Z,101040.28
2022-08-20T18:17:42.628Z,101042.00
2022-08-20T18:21:04.141Z,101026.97
2022-08-20T18:23:57.297Z,101047.78
2022-08-20T18:26:50.228Z,101047.22
2022-08-20T18:29:42.695Z,101039.75
2022-08-20T18:32:32.812Z,101059.13
2022-08-20T18:35:22.044Z,101070.72
2022-08-20T18:38:29.278Z,101064.50
2022-08-20T18:41:30.506Z,101076.38
2022-08-20T18:44:30.995Z,101067.34
2022-08-20T18:47:24.705Z,101066.78
2022-08-20T18:50:21.658Z,101063.44
2022-08-20T18:53:12.670Z,101066.22
2022-08-20T18:56:06.248Z,101063.81
2022-08-20T18:59:02.501Z,101063.06
2022-08-20T19:01:50.628Z,101067.56
2022-08-20T19:04:39.869Z,101063.16
2022-08-20T19:07:48.054Z,101071.50
2022-08-20T19:10:48.503Z,101068.16
2022-08-20T19:14:04.859Z,101077.25
2022-08-20T19:17:02.362Z,101067.66
2022-08-20T19:20:00.546Z,101072.16
2022-08-20T19:22:48.728Z,101076.88
2022-08-20T19:25:39.918Z,101078.69
2022-08-20T19:28:29.927Z,101071.88
2022-08-20T19:31:22.422Z,101069.09
2022-08-20T19:34:20.070Z,101067.56
2022-08-20T19:37:35.137Z,101078.31
2022-08-20T19:40:29.458Z,101084.66
2022-08-20T19:43:19.028Z,101084.75
2022-08-20T19:46:05.658Z,101087.53
2022-08-20T19:49:10.213Z,101078.50
2022-08-20T19:52:09.184Z,101082.91
2022-08-20T19:55:03.328Z,101084.84
2022-08-20T19:57:55.914Z,101083.09
2022-08-20T20:00:51.012Z,101089.53
2022-08-20T20:03:39.075Z,101091.34
2022-08-20T20:06:28.929Z,101090.59
2022-08-20T20:09:19.598Z,101089.72
2022-08-20T20:12:22.425Z,101090.78
2022-08-20T20:15:10.422Z,101089.91
2022-08-20T20:17:59.660Z,101089.91
2022-08-20T20:20:57.270Z,101094.53
2022-08-20T20:23:54.794Z,101086.19
2022-08-20T20:26:42.775Z,101073.13
2022-08-20T20:29:37.269Z,101054.38
2022-08-20T20:32:25.837Z,101084.66
2022-08-20T20:35:23.644Z,101083.97
2022-08-20T20:38:12.608Z,101087.44
2022-08-20T20:41:03.115Z,101088.28
2022-08-20T20:44:00.698Z,101083.88
2022-08-20T20:46:50.753Z,101085.41
2022-08-20T20:49:49.600Z,101081.78
2022-08-20T20:52:39.147Z,101074.78
2022-08-20T20:55:27.844Z,101075.72
2022-08-20T20:58:15.702Z,101078.31
2022-08-20T21:01:05.645Z,101077.56
2022-08-20T21:03:52.353Z,101078.13
2022-08-20T21:06:39.909Z,101080.22
2022-08-20T21:09:27.912Z,101081.28
2022-08-20T21:12:15.285Z,101081.19
2022-08-20T21:15:10.499Z,101077.94
2022-08-20T21:18:02.969Z,101081.47
2022-08-20T21:20:52.658Z,101072.47
2022-08-20T21:23:41.378Z,101075.25
2022-08-20T21:26:29.054Z,101077.75
2022-08-20T21:29:18.211Z,101074.28
2022-08-20T21:32:06.996Z,101071.69
2022-08-20T21:34:53.679Z,101063.75
2022-08-20T21:37:40.595Z,101058.78
2022-08-20T21:40:28.409Z,101070.28
2022-08-20T21:43:18.762Z,101066.75
2022-08-20T21:46:06.731Z,101061.28
2022-08-20T21:48:56.489Z,101060.59
2022-08-20T21:51:43.175Z,101062.63
2022-08-20T21:54:31.612Z,101062.72
2022-08-20T21:57:20.758Z,101062.81
2022-08-20T22:00:16.050Z,101060.31
2022-08-20T22:03:02.842Z,101055.13
2022-08-20T22:05:51.502Z,101054.19
2022-08-20T22:08:37.889Z,101057.72
2022-08-20T22:11:24.810Z,101058.59
2022-08-20T22:14:13.209Z,101054.28
2022-08-20T22:17:00.166Z,101052.53
2022-08-20T22:19:46.748Z,101052.91
2022-08-20T22:22:34.648Z,101053.09
2022-08-20T22:25:21.612Z,101048.78
2022-08-20T22:28:08.360Z,101061.34
2022-08-20T22:30:55.144Z,101057.88
2022-08-20T22:33:42.194Z,101055.50
2022-08-20T22:36:29.475Z,101065.44
2022-08-20T22:39:17.585Z,101063.44
2022-08-20T22:42:05.101Z,101059.03
2022-08-20T22:44:51.634Z,101062.00
2022-08-20T22:47:38.547Z,101060.25
2022-08-20T22:50:25.780Z,101064.75
2022-08-20T22:53:13.819Z,101056.97
2022-08-20T22:56:02.135Z,101063.56
2022-08-20T22:58:50.201Z,101065.47
2022-08-20T23:01:37.936Z,101067.78
2022-08-20T23:04:27.858Z,101068.66
2022-08-20T23:07:15.761Z,101068.84
2022-08-20T23:10:02.586Z,101077.06
2022-08-20T23:12:50.606Z,101074.47
2022-08-20T23:15:43.386Z,101069.28
2022-08-20T23:18:32.657Z,101069.38
2022-08-20T23:21:19.196Z,101072.91
2022-08-20T23:24:06.575Z,101068.59
2022-08-20T23:27:00.846Z,101065.94
2022-08-20T23:29:49.184Z,101069.66
2022-08-20T23:32:35.731Z,101071.47
2022-08-20T23:35:22.756Z,101071.47
2022-08-20T23:38:13.747Z,101065.16
2022-08-20T23:41:00.438Z,101072.50
2022-08-20T23:43:47.225Z,101070.69
2022-08-20T23:46:37.691Z,101077.78
2022-08-20T23:49:24.326Z,101072.34
2022-08-20T23:52:11.234Z,101072.41
2022-08-20T23:54:58.173Z,101075.88
2022-08-20T23:57:44.721Z,101066.00
